Time;durP1;ratioP1;P1;durP2;ratioP2;P2;SDS_P1;SDS_P2;PMS_P1;PMS_P2;Temp;Humidity;BMP_temperature;BMP_pressure;BME280_temperature;BME280_humidity;BME280_pressure;Samples;Min_cycle;Max_cycle;Signal;HPM_P1;HPM_P2
2021/03/18 03:48:57;;;;;;;334.63;318.83;;;0.00;99.90;;;;;;4659876;30;20210;-83
2021/03/18 04:51:07;;;;;;;371.83;353.33;;;1.00;99.90;;;;;;4585239;31;20842;-83
2021/03/18 04:53:35;;;;;;;350.65;333.67;;;1.00;99.90;;;;;;4674274;30;20546;-83
2021/03/18 04:56:20;;;;;;;;;;;;;;;;;;;;;
2021/03/18 04:59:37;;;;;;;347.20;330.50;;;1.00;99.90;;;;;;4780186;30;20460;-82
2021/03/18 05:02:33;;;;;;;353.80;336.38;;;1.10;99.90;;;;;;4711444;30;20461;-82
2021/03/18 05:05:48;;;;;;;370.60;352.70;;;1.10;99.90;;;;;;4749693;30;20595;-81
2021/03/18 05:08:23;;;;;;;354.83;338.13;;;1.10;99.90;;;;;;4753779;30;20552;-82
2021/03/18 05:10:55;;;;;;;355.97;338.43;;;1.10;99.90;;;;;;4783624;29;20572;-81
2021/03/18 05:13:31;;;;;;;352.57;335.93;;;1.10;99.90;;;;;;4795002;29;20475;-81
2021/03/18 05:15:59;;;;;;;346.30;329.70;;;1.20;99.90;;;;;;4805009;29;20490;-81
2021/03/18 05:18:33;;;;;;;310.07;294.77;;;1.20;99.90;;;;;;4787545;29;21040;-82
2021/03/18 05:21:15;;;;;;;301.67;286.27;;;1.10;99.90;;;;;;4786894;30;20467;-81
2021/03/18 05:23:58;;;;;;;311.20;296.00;;;1.20;99.90;;;;;;4768851;30;20465;-81
2021/03/18 05:26:25;;;;;;;310.23;294.63;;;1.10;99.90;;;;;;4771409;29;20472;-81
2021/03/18 05:28:56;;;;;;;316.73;301.53;;;1.20;99.90;;;;;;4817811;29;20865;-81
2021/03/18 05:31:23;;;;;;;301.03;285.90;;;1.20;99.90;;;;;;4843155;29;20525;-81
2021/03/18 05:34:14;;;;;;;299.17;284.27;;;1.00;99.90;;;;;;4853975;29;20468;-80
2021/03/18 05:37:11;;;;;;;;;;;;;;;;;;;;;
2021/03/18 05:39:39;;;;;;;296.65;282.05;;;1.00;99.90;;;;;;4859719;29;20539;-82
2021/03/18 05:42:06;;;;;;;294.97;280.57;;;1.00;99.90;;;;;;4852465;29;20215;-81
2021/03/18 05:51:38;;;;;;;297.87;282.50;;;0.80;99.90;;;;;;4711952;29;20516;-81
2021/03/18 05:54:10;;;;;;;290.37;275.10;;;0.90;99.90;;;;;;4860243;29;20503;-81
2021/03/18 05:57:02;;;;;;;302.30;286.50;;;0.80;99.90;;;;;;4844101;29;20489;-82
2021/03/18 05:59:38;;;;;;;287.13;272.23;;;0.80;99.90;;;;;;4798468;29;20467;-81
2021/03/18 06:02:19;;;;;;;300.73;285.33;;;0.90;99.90;;;;;;4801404;29;20492;-82
2021/03/18 06:04:48;;;;;;;311.60;295.37;;;0.90;99.90;;;;;;4803450;29;20208;-78
2021/03/18 06:10:42;;;;;;;315.77;297.73;;;1.10;99.90;;;;;;4790246;29;20497;-82
2021/03/18 06:14:05;;;;;;;;;;;;;;;;;;;;;
2021/03/18 06:20:14;;;;;;;332.00;312.13;;;1.00;99.90;;;;;;4770912;29;20518;-81
2021/03/18 06:22:49;;;;;;;329.53;310.23;;;1.10;99.90;;;;;;4803954;29;20459;-82
2021/03/18 06:25:43;;;;;;;318.13;299.90;;;1.20;99.90;;;;;;4830015;29;20562;-81
2021/03/18 06:28:26;;;;;;;;;;;;;;;;;;;;;
2021/03/18 06:31:11;;;;;;;307.67;291.83;;;1.20;99.90;;;;;;4838675;29;20488;-80
2021/03/18 06:33:42;;;;;;;298.13;283.30;;;1.30;99.90;;;;;;4839589;29;20535;-80
2021/03/18 06:36:19;;;;;;;287.97;272.33;;;1.40;99.90;;;;;;4852815;29;20496;-80
2021/03/18 06:38:58;;;;;;;291.50;276.50;;;1.40;99.90;;;;;;4843230;29;21025;-80
2021/03/18 06:41:33;;;;;;;280.53;265.87;;;1.50;99.90;;;;;;4839488;29;20552;-81
2021/03/18 06:44:04;;;;;;;291.87;276.50;;;1.70;99.90;;;;;;4842138;29;20468;-82
2021/03/18 06:46:41;;;;;;;294.83;280.77;;;1.70;99.90;;;;;;4841826;29;20465;-82
2021/03/18 06:49:11;;;;;;;297.60;282.97;;;1.60;99.90;;;;;;4842071;29;20457;-82
2021/03/18 06:51:40;;;;;;;286.73;273.03;;;1.80;99.90;;;;;;4841512;29;20907;-80
2021/03/18 06:54:20;;;;;;;278.13;264.67;;;1.80;99.90;;;;;;4840921;29;20799;-80
2021/03/18 06:56:54;;;;;;;281.47;267.80;;;1.90;99.90;;;;;;4837368;29;20489;-80
2021/03/18 06:59:22;;;;;;;268.80;255.50;;;1.90;99.90;;;;;;4840253;29;20832;-79
2021/03/18 07:02:02;;;;;;;246.67;234.40;;;2.00;99.90;;;;;;4841960;29;20465;-81
2021/03/18 07:04:32;;;;;;;232.83;220.03;;;2.10;99.90;;;;;;4828330;29;20489;-81
2021/03/18 07:07:00;;;;;;;217.23;204.93;;;2.20;99.90;;;;;;4841514;29;20572;-80
2021/03/18 07:10:03;;;;;;;216.30;202.27;;;2.30;99.90;;;;;;4839738;29;21021;-81
2021/03/18 07:12:45;;;;;;;185.63;174.83;;;2.50;99.90;;;;;;4836679;29;20552;-82
2021/03/18 07:15:18;;;;;;;152.18;143.15;;;2.60;99.90;;;;;;4858029;29;20970;-81
2021/03/18 07:17:48;;;;;;;124.90;116.67;;;2.70;99.90;;;;;;4860355;29;20203;-81
2021/03/18 07:20:17;;;;;;;126.13;118.33;;;2.80;99.90;;;;;;4860103;29;20464;-80
2021/03/18 07:22:46;;;;;;;104.23;95.90;;;2.80;99.90;;;;;;4860108;29;20501;-81
2021/03/18 07:25:14;;;;;;;108.13;100.43;;;2.90;99.90;;;;;;4858786;29;20829;-81
2021/03/18 07:27:45;;;;;;;97.60;90.77;;;3.00;99.90;;;;;;4860047;29;20852;-80
2021/03/18 07:30:28;;;;;;;99.90;93.70;;;3.00;99.90;;;;;;4850640;29;21094;-80
2021/03/18 07:32:56;;;;;;;95.93;89.13;;;3.20;99.90;;;;;;4841648;29;20473;-80
2021/03/18 07:35:24;;;;;;;96.17;89.67;;;3.40;99.90;;;;;;4843161;29;20497;-81
2021/03/18 07:37:54;;;;;;;99.50;91.70;;;3.70;99.90;;;;;;4844480;29;20485;-81
2021/03/18 07:40:21;;;;;;;70.80;64.83;;;3.80;99.90;;;;;;4841223;29;20473;-80
2021/03/18 07:42:51;;;;;;;65.53;58.50;;;3.90;99.90;;;;;;4844111;29;20466;-80
2021/03/18 07:45:20;;;;;;;56.33;47.57;;;4.00;99.90;;;;;;4843696;29;20573;-80
2021/03/18 07:47:47;;;;;;;57.50;51.90;;;4.00;99.90;;;;;;4841830;29;20544;-80
2021/03/18 07:50:19;;;;;;;41.97;37.33;;;4.20;99.90;;;;;;4842978;29;20468;-80
2021/03/18 07:52:48;;;;;;;49.93;42.53;;;4.30;99.90;;;;;;4843109;29;20505;-80
2021/03/18 07:55:18;;;;;;;35.17;26.60;;;4.50;99.90;;;;;;4842092;29;20485;-80
2021/03/18 07:57:50;;;;;;;43.47;24.60;;;4.60;99.90;;;;;;4842362;29;20495;-80
2021/03/18 08:00:18;;;;;;;38.27;22.57;;;4.80;99.90;;;;;;4842237;29;20495;-81
2021/03/18 08:02:45;;;;;;;36.90;21.83;;;4.80;99.90;;;;;;4842816;29;20945;-80
2021/03/18 08:05:37;;;;;;;34.73;21.53;;;4.90;96.10;;;;;;4842575;29;20504;-80
2021/03/18 08:08:04;;;;;;;33.63;21.50;;;5.00;94.50;;;;;;4841810;29;20484;-80
2021/03/18 08:10:41;;;;;;;30.00;21.87;;;5.00;94.10;;;;;;4841348;29;20984;-80
2021/03/18 08:13:07;;;;;;;38.57;19.70;;;5.10;93.70;;;;;;4842703;29;20507;-80
2021/03/18 08:16:04;;;;;;;35.93;20.73;;;5.00;86.40;;;;;;4842758;29;20497;-81
2021/03/18 08:18:46;;;;;;;;;;;;;;;;;;;;;
2021/03/18 08:24:38;;;;;;;42.13;23.90;;;5.10;82.70;;;;;;4811393;29;20468;-82
2021/03/18 08:27:11;;;;;;;43.67;25.57;;;5.10;89.00;;;;;;4841958;29;20481;-81
2021/03/18 08:29:46;;;;;;;35.07;21.63;;;5.20;85.00;;;;;;4842517;29;20469;-81
2021/03/18 08:32:27;;;;;;;38.47;26.87;;;5.00;84.70;;;;;;4843330;29;20892;-81
2021/03/18 08:38:49;;;;;;;;;;;;;;;;;;;;;
2021/03/18 08:41:46;;;;;;;37.80;24.63;;;5.30;85.40;;;;;;4832283;29;21773;-81
2021/03/18 08:44:45;;;;;;;36.33;23.97;;;5.50;80.30;;;;;;4808141;29;20473;-81
2021/03/18 08:47:45;;;;;;;36.40;22.53;;;5.70;79.90;;;;;;4840788;29;20942;-81
2021/03/18 08:51:15;;;;;;;;;;;;;;;;;;;;;
2021/03/18 08:54:35;;;;;;;;;;;;;;;;;;;;;
2021/03/18 08:57:09;;;;;;;34.10;19.13;;;6.20;73.00;;;;;;4747193;30;20601;-81
2021/03/18 09:03:10;;;;;;;36.00;21.70;;;6.50;56.50;;;;;;4764990;30;20525;-81
2021/03/18 09:06:05;;;;;;;;;;;;;;;;;;;;;
2021/03/18 09:12:11;;;;;;;;;;;;;;;;;;;;;
2021/03/18 09:22:53;;;;;;;33.47;18.77;;;6.90;48.20;;;;;;4570006;31;20502;-83
2021/03/18 09:44:41;;;;;;;;;;;;;;;;;;;;;
2021/03/18 11:00:21;;;;;;;;;;;;;;;;;;;;;
2021/03/18 13:16:19;;;;;;;;;;;;;;;;;;;;;
2021/03/18 14:10:11;;;;;;;10.20;3.87;;;7.00;25.70;;;;;;4653215;30;20463;-84
2021/03/18 14:13:41;;;;;;;;;;;;;;;;;;;;;
2021/03/18 14:33:33;;;;;;;16.20;5.97;;;7.70;27.00;;;;;;4636160;30;20474;-83
2021/03/18 14:37:08;;;;;;;;;;;;;;;;;;;;;
2021/03/18 14:54:37;;;;;;;15.50;6.33;;;7.10;33.50;;;;;;4586054;30;20952;-84
2021/03/18 14:57:47;;;;;;;13.20;5.30;;;7.00;31.60;;;;;;4677688;30;20238;-85
2021/03/18 15:00:20;;;;;;;20.70;5.50;;;6.80;36.60;;;;;;4677221;30;20468;-84
2021/03/18 15:02:47;;;;;;;18.60;8.27;;;6.40;46.40;;;;;;4697696;30;20471;-83
2021/03/18 15:05:19;;;;;;;17.37;7.73;;;6.30;52.00;;;;;;4766711;30;20473;-82
2021/03/18 15:08:11;;;;;;;13.50;6.43;;;6.20;60.70;;;;;;4814720;29;20956;-81
2021/03/18 15:10:53;;;;;;;24.17;7.10;;;6.10;56.30;;;;;;4855488;29;20468;-82
2021/03/18 15:13:21;;;;;;;16.10;7.87;;;6.00;60.60;;;;;;4860342;29;20471;-82
2021/03/18 15:15:48;;;;;;;25.57;9.57;;;6.00;60.20;;;;;;4860177;29;20464;-83
2021/03/18 15:18:20;;;;;;;18.30;8.10;;;6.20;64.70;;;;;;4860546;29;20560;-82
2021/03/18 15:20:51;;;;;;;19.37;9.27;;;6.30;65.30;;;;;;4860248;29;20457;-82
2021/03/18 15:23:19;;;;;;;20.30;9.70;;;6.60;72.80;;;;;;4860558;29;20795;-82
2021/03/18 15:29:34;;;;;;;;;;;;;;;;;;;;;
2021/03/18 15:32:16;;;;;;;21.33;8.53;;;7.10;51.10;;;;;;4821021;29;20562;-83
2021/03/18 15:35:12;;;;;;;22.60;7.77;;;7.20;42.40;;;;;;4821284;29;20485;-83
2021/03/18 15:37:50;;;;;;;18.90;8.23;;;7.30;41.10;;;;;;4830554;29;20914;-82
2021/03/18 15:44:34;;;;;;;20.07;8.03;;;7.40;36.30;;;;;;4779742;29;20539;-83
2021/03/18 15:47:55;;;;;;;19.20;7.73;;;7.50;40.10;;;;;;4874554;29;20467;-82
2021/03/18 15:50:59;;;;;;;20.23;9.33;;;7.30;40.50;;;;;;4877867;29;20550;-83
2021/03/18 15:53:51;;;;;;;25.20;8.53;;;7.20;39.50;;;;;;4865208;29;21099;-83
2021/03/18 15:57:03;;;;;;;19.63;9.47;;;7.10;44.90;;;;;;4878428;29;20577;-82
2021/03/18 16:00:03;;;;;;;;;;;;;;;;;;;;;
2021/03/18 16:02:45;;;;;;;24.73;8.50;;;7.20;43.50;;;;;;4880973;29;21023;-83
2021/03/18 16:08:59;;;;;;;;;;;;;;;;;;;;;
2021/03/18 16:11:53;;;;;;;18.97;9.10;;;6.90;42.20;;;;;;4875776;29;20455;-83
2021/03/18 16:17:29;;;;;;;;;;;;;;;;;;;;;
2021/03/18 16:20:38;;;;;;;;;;;;;;;;;;;;;
2021/03/18 16:26:28;;;;;;;18.70;9.73;;;6.40;52.50;;;;;;4896814;29;20881;-83
2021/03/18 16:29:17;;;;;;;23.40;9.27;;;6.50;48.10;;;;;;4895434;29;20463;-82
2021/03/18 16:31:56;;;;;;;21.80;11.00;;;6.40;49.20;;;;;;4881332;29;20467;-83
2021/03/18 16:34:42;;;;;;;21.57;9.97;;;6.40;49.20;;;;;;4897571;29;20541;-83
2021/03/18 16:46:51;;;;;;;28.63;11.30;;;6.60;49.50;;;;;;4856844;29;20455;-83
2021/03/18 16:50:06;;;;;;;;;;;;;;;;;;;;;
2021/03/18 16:56:25;;;;;;;18.03;10.27;;;6.50;52.00;;;;;;4801994;29;20475;-83
2021/03/18 16:59:37;;;;;;;;;;;;;;;;;;;;;
2021/03/18 17:02:50;;;;;;;23.87;10.50;;;6.30;50.30;;;;;;4731374;30;20482;-83
2021/03/18 17:15:24;;;;;;;;;;;;;;;;;;;;;
2021/03/18 17:18:08;;;;;;;18.70;10.30;;;6.00;55.40;;;;;;4694685;30;20505;-83
2021/03/18 17:21:22;;;;;;;20.60;10.90;;;6.00;56.50;;;;;;4749169;30;21061;-83
2021/03/18 17:24:20;;;;;;;25.50;12.07;;;6.10;60.70;;;;;;4753662;29;20481;-82
2021/03/18 17:30:41;;;;;;;;;;;;;;;;;;;;;
2021/03/18 17:33:46;;;;;;;22.50;11.87;;;5.90;69.30;;;;;;4892044;29;20454;-83
2021/03/18 17:36:45;;;;;;;16.87;9.57;;;5.90;70.80;;;;;;4898592;29;21033;-83
2021/03/18 17:54:37;;;;;;;27.07;11.70;;;5.60;70.00;;;;;;4628377;30;20948;-86
2021/03/18 18:42:43;;;;;;;27.13;12.13;;;5.60;80.90;;;;;;4646079;30;20332;-83
2021/03/18 18:45:26;;;;;;;27.90;12.57;;;5.60;79.60;;;;;;4701155;30;20307;-83
2021/03/18 18:49:02;;;;;;;;;;;;;;;;;;;;;
2021/03/18 18:54:40;;;;;;;39.20;28.07;;;5.60;98.90;;;;;;4773711;30;20872;-80
2021/03/18 18:57:07;;;;;;;44.37;38.67;;;5.50;99.90;;;;;;4782640;30;20498;-80
2021/03/18 18:59:39;;;;;;;42.40;37.97;;;5.40;99.90;;;;;;4784320;30;20477;-81
2021/03/18 19:02:09;;;;;;;49.17;43.87;;;5.20;99.90;;;;;;4784723;30;20518;-82
2021/03/18 19:04:51;;;;;;;54.17;49.47;;;5.20;99.90;;;;;;4784181;30;20910;-81
2021/03/18 19:14:28;;;;;;;107.87;100.20;;;5.10;99.90;;;;;;4802444;29;20520;-83
2021/03/18 19:20:51;;;;;;;;;;;;;;;;;;;;;
2021/03/18 19:24:16;;;;;;;;;;;;;;;;;;;;;
2021/03/18 20:04:10;;;;;;;;;;;;;;;;;;;;;
2021/03/18 20:07:27;;;;;;;151.27;139.77;;;4.80;99.90;;;;;;4741060;30;20475;-83
2021/03/18 20:10:34;;;;;;;;;;;;;;;;;;;;;
2021/03/18 20:13:08;;;;;;;208.70;193.80;;;4.90;99.90;;;;;;4682837;30;20473;-83
2021/03/18 20:16:18;;;;;;;;;;;;;;;;;;;;;
2021/03/18 20:19:19;;;;;;;;;;;;;;;;;;;;;
2021/03/18 20:22:21;;;;;;;250.17;234.07;;;5.10;99.90;;;;;;4786502;29;20878;-83
2021/03/18 20:28:55;;;;;;;;;;;;;;;;;;;;;
2021/03/18 21:14:08;;;;;;;164.50;156.20;;;4.70;99.90;;;;;;4692615;30;20555;-84
2021/03/18 22:26:05;;;;;;;160.10;152.17;;;4.40;99.90;;;;;;4708143;30;20538;-83
2021/03/18 22:29:10;;;;;;;;;;;;;;;;;;;;;
2021/03/18 22:32:20;;;;;;;150.90;143.80;;;4.40;99.90;;;;;;4749374;29;20955;-83
2021/03/18 22:35:47;;;;;;;;;;;;;;;;;;;;;
2021/03/18 22:39:11;;;;;;;142.33;135.63;;;4.30;99.90;;;;;;4728823;30;20926;-83
2021/03/18 22:42:27;;;;;;;;;;;;;;;;;;;;;
2021/03/18 22:45:24;;;;;;;114.60;109.20;;;4.30;99.90;;;;;;4780786;29;20464;-83
2021/03/18 22:48:25;;;;;;;;;;;;;;;;;;;;;
2021/03/18 22:51:17;;;;;;;;;;;;;;;;;;;;;
2021/03/18 22:54:01;;;;;;;;;;;;;;;;;;;;;
2021/03/18 22:57:21;;;;;;;;;;;;;;;;;;;;;
2021/03/18 23:00:32;;;;;;;79.57;75.70;;;3.70;99.90;;;;;;4820931;29;20489;-82
2021/03/18 23:06:25;;;;;;;77.90;73.67;;;3.70;99.90;;;;;;4843890;29;20821;-82
2021/03/18 23:08:54;;;;;;;80.73;76.63;;;3.70;99.90;;;;;;4843752;29;20813;-82
2021/03/18 23:11:23;;;;;;;79.23;75.20;;;3.70;99.90;;;;;;4843051;29;20465;-82
2021/03/18 23:14:05;;;;;;;78.33;74.83;;;3.70;99.90;;;;;;4843646;29;20629;-82
2021/03/18 23:17:10;;;;;;;83.17;79.00;;;3.70;99.90;;;;;;4843634;29;20552;-82
2021/03/18 23:19:39;;;;;;;88.47;84.00;;;3.80;99.90;;;;;;4847723;29;20469;-82
2021/03/18 23:22:08;;;;;;;80.60;76.17;;;3.80;99.90;;;;;;4882584;29;20466;-82
2021/03/18 23:24:35;;;;;;;82.97;78.40;;;3.80;99.90;;;;;;4881506;29;20459;-82
2021/03/18 23:27:03;;;;;;;87.10;82.70;;;3.80;99.90;;;;;;4882541;29;20824;-81
2021/03/18 23:29:38;;;;;;;83.27;78.77;;;3.90;99.90;;;;;;4882477;29;20516;-81
2021/03/18 23:32:14;;;;;;;83.00;78.53;;;3.90;99.90;;;;;;4882365;29;20843;-82
2021/03/18 23:34:53;;;;;;;;;;;;;;;;;;;;;
2021/03/18 23:37:20;;;;;;;85.47;81.37;;;3.80;99.90;;;;;;4882273;29;20815;-81
2021/03/18 23:39:49;;;;;;;86.37;81.70;;;3.80;99.90;;;;;;4881562;29;20527;-81
2021/03/18 23:42:23;;;;;;;85.67;81.23;;;3.80;99.90;;;;;;4882314;29;20467;-81
2021/03/18 23:45:16;;;;;;;;;;;;;;;;;;;;;
2021/03/18 23:47:51;;;;;;;73.67;69.80;;;3.80;99.90;;;;;;4880557;29;20538;-81
2021/03/18 23:50:23;;;;;;;70.50;66.77;;;3.90;99.90;;;;;;4882129;29;20459;-81
2021/03/18 23:52:54;;;;;;;67.43;63.53;;;3.90;99.90;;;;;;4881944;29;20543;-82
2021/03/18 23:55:21;;;;;;;62.40;58.60;;;3.90;99.90;;;;;;4847797;29;20502;-81
2021/03/18 23:57:49;;;;;;;64.43;60.63;;;3.80;99.90;;;;;;4881800;29;21115;-81
